Armour, South Dakota
Current Conditions -  °F | °C
As of 9:53 PM on Tuesday 27 Jan 2015 (Local Time) from KMHE Reporting Station
Clear Clear  
Wind Chill: 29°   Ceiling: Unl
Heat Index: 38°   Visibility: 10mi
Dew Point: 33°   Wind: 15mph
Humidity: 83%   Direction: 150°SSE
Pressure: 29.89"   Gusts: NA
Location:  43.32°N, 98.35°W
Report Text: KMHE 280353Z AUTO 15013KT 10SM CLR 03/01 A2989 RMK AO2 SLP134 T00330006
Loading
Personal Weather Stations






























Interactive Weather Map New forecast layout! Learn more

10-Day Weather Forecast

Advertisements
Track Severe Weather on mobile